Alexandria, New Hampshire
Current Conditions -  °F | °C
As of 4:35 AM on Saturday 20 Dec 2014 (Local Time) from K1P1 Reporting Station
Clear Clear  
Wind Chill: 13°   Ceiling: Unl
Heat Index: 20°   Visibility: 10mi
Dew Point: 19°   Wind: 5mph
Humidity: 96%   Direction: 310°NW
Pressure: 30.21"   Gusts: NA
Location:  43.6264°N, 71.7826°W
Report Text: K1P1 200935Z AUTO 31004KT 10SM CLR M07/M07 A3021 RMK AO2 T10681073
Loading
Personal Weather Stations






























Interactive Weather Map New forecast layout! Learn more

10-Day Weather Forecast

Advertisements
Track Severe Weather on mobile